sensor_id;sensor_type;location;lat;lon;timestamp;P1;durP1;ratioP1;P2;durP2;ratioP2
49015;SDS011;34830;44.064;12.566;2023-04-01T00:02:08;4.80;;;1.33;;
49015;SDS011;34830;44.064;12.566;2023-04-01T00:04:34;5.25;;;1.45;;
49015;SDS011;34830;44.064;12.566;2023-04-01T00:07:00;5.40;;;1.30;;
49015;SDS011;34830;44.064;12.566;2023-04-01T00:09:27;2.78;;;1.08;;
49015;SDS011;34830;44.064;12.566;2023-04-01T00:11:53;2.33;;;1.05;;
49015;SDS011;34830;44.064;12.566;2023-04-01T00:14:19;4.53;;;0.88;;
49015;SDS011;34830;44.064;12.566;2023-04-01T00:16:45;1.67;;;0.73;;
49015;SDS011;34830;44.064;12.566;2023-04-01T00:19:11;2.78;;;1.00;;
49015;SDS011;34830;44.064;12.566;2023-04-01T00:21:37;3.97;;;1.40;;
49015;SDS011;34830;44.064;12.566;2023-04-01T00:24:03;1.98;;;0.80;;
49015;SDS011;34830;44.064;12.566;2023-04-01T00:26:29;5.22;;;1.52;;
49015;SDS011;34830;44.064;12.566;2023-04-01T00:28:55;4.07;;;1.10;;
49015;SDS011;34830;44.064;12.566;2023-04-01T00:31:22;2.40;;;0.80;;
49015;SDS011;34830;44.064;12.566;2023-04-01T00:33:48;4.18;;;0.93;;
49015;SDS011;34830;44.064;12.566;2023-04-01T00:36:18;5.38;;;1.48;;
49015;SDS011;34830;44.064;12.566;2023-04-01T00:38:45;3.30;;;1.17;;
49015;SDS011;34830;44.064;12.566;2023-04-01T00:41:12;4.65;;;1.17;;
49015;SDS011;34830;44.064;12.566;2023-04-01T00:43:44;3.65;;;1.35;;
49015;SDS011;34830;44.064;12.566;2023-04-01T00:46:11;2.03;;;0.85;;
49015;SDS011;34830;44.064;12.566;2023-04-01T00:48:45;2.25;;;1.10;;
49015;SDS011;34830;44.064;12.566;2023-04-01T00:51:26;2.58;;;0.98;;
49015;SDS011;34830;44.064;12.566;2023-04-01T00:53:54;2.67;;;0.90;;
49015;SDS011;34830;44.064;12.566;2023-04-01T00:56:22;2.20;;;0.70;;
49015;SDS011;34830;44.064;12.566;2023-04-01T00:58:57;2.25;;;0.95;;
49015;SDS011;34830;44.064;12.566;2023-04-01T01:01:26;2.38;;;1.25;;
49015;SDS011;34830;44.064;12.566;2023-04-01T01:03:52;2.47;;;0.77;;
49015;SDS011;34830;44.064;12.566;2023-04-01T01:12:22;2.33;;;0.90;;
49015;SDS011;34830;44.064;12.566;2023-04-01T01:14:36;1.95;;;0.80;;
49015;SDS011;34830;44.064;12.566;2023-04-01T01:17:12;2.20;;;0.68;;
49015;SDS011;34830;44.064;12.566;2023-04-01T01:19:50;1.75;;;0.80;;
49015;SDS011;34830;44.064;12.566;2023-04-01T01:27:38;7.50;;;1.50;;
49015;SDS011;34830;44.064;12.566;2023-04-01T01:30:13;5.28;;;1.15;;
49015;SDS011;34830;44.064;12.566;2023-04-01T01:37:58;5.65;;;1.35;;
49015;SDS011;34830;44.064;12.566;2023-04-01T01:40:27;3.28;;;1.10;;
49015;SDS011;34830;44.064;12.566;2023-04-01T01:42:55;4.28;;;0.90;;
49015;SDS011;34830;44.064;12.566;2023-04-01T01:45:24;3.30;;;1.00;;
49015;SDS011;34830;44.064;12.566;2023-04-01T01:47:52;3.05;;;1.58;;
49015;SDS011;34830;44.064;12.566;2023-04-01T01:50:18;4.40;;;1.40;;
49015;SDS011;34830;44.064;12.566;2023-04-01T01:52:45;3.42;;;1.10;;
49015;SDS011;34830;44.064;12.566;2023-04-01T01:55:29;3.15;;;1.20;;
49015;SDS011;34830;44.064;12.566;2023-04-01T01:57:58;3.45;;;1.00;;
49015;SDS011;34830;44.064;12.566;2023-04-01T02:00:45;2.95;;;1.27;;
49015;SDS011;34830;44.064;12.566;2023-04-01T02:03:14;3.33;;;1.10;;
49015;SDS011;34830;44.064;12.566;2023-04-01T02:05:41;3.85;;;1.15;;
49015;SDS011;34830;44.064;12.566;2023-04-01T02:08:13;3.17;;;1.20;;
49015;SDS011;34830;44.064;12.566;2023-04-01T02:10:43;3.33;;;1.30;;
49015;SDS011;34830;44.064;12.566;2023-04-01T02:13:18;2.97;;;1.17;;
49015;SDS011;34830;44.064;12.566;2023-04-01T02:15:49;4.45;;;1.30;;
49015;SDS011;34830;44.064;12.566;2023-04-01T02:18:17;4.97;;;1.30;;
49015;SDS011;34830;44.064;12.566;2023-04-01T02:20:45;3.10;;;1.40;;
49015;SDS011;34830;44.064;12.566;2023-04-01T02:23:12;4.53;;;1.38;;
49015;SDS011;34830;44.064;12.566;2023-04-01T02:25:38;4.47;;;1.88;;
49015;SDS011;34830;44.064;12.566;2023-04-01T02:28:06;4.05;;;1.58;;
49015;SDS011;34830;44.064;12.566;2023-04-01T02:30:34;5.63;;;1.92;;
49015;SDS011;34830;44.064;12.566;2023-04-01T02:33:01;5.80;;;2.20;;
49015;SDS011;34830;44.064;12.566;2023-04-01T02:35:30;7.00;;;2.13;;
49015;SDS011;34830;44.064;12.566;2023-04-01T02:38:00;6.38;;;2.05;;
49015;SDS011;34830;44.064;12.566;2023-04-01T02:40:26;6.60;;;1.80;;
49015;SDS011;34830;44.064;12.566;2023-04-01T02:42:52;5.43;;;2.30;;
49015;SDS011;34830;44.064;12.566;2023-04-01T02:45:19;6.38;;;1.70;;
49015;SDS011;34830;44.064;12.566;2023-04-01T02:47:45;4.68;;;2.00;;
49015;SDS011;34830;44.064;12.566;2023-04-01T02:50:11;7.88;;;2.30;;
49015;SDS011;34830;44.064;12.566;2023-04-01T02:52:37;4.25;;;2.55;;
49015;SDS011;34830;44.064;12.566;2023-04-01T02:55:03;5.35;;;2.10;;
49015;SDS011;34830;44.064;12.566;2023-04-01T02:57:30;5.82;;;2.33;;
49015;SDS011;34830;44.064;12.566;2023-04-01T02:59:56;5.25;;;1.83;;
49015;SDS011;34830;44.064;12.566;2023-04-01T03:02:22;5.63;;;2.33;;
49015;SDS011;34830;44.064;12.566;2023-04-01T03:04:48;5.75;;;2.03;;
49015;SDS011;34830;44.064;12.566;2023-04-01T03:07:14;6.18;;;2.50;;
49015;SDS011;34830;44.064;12.566;2023-04-01T03:09:41;6.93;;;2.17;;
49015;SDS011;34830;44.064;12.566;2023-04-01T03:12:07;6.93;;;2.85;;
49015;SDS011;34830;44.064;12.566;2023-04-01T03:14:43;6.18;;;2.60;;
49015;SDS011;34830;44.064;12.566;2023-04-01T03:17:09;4.47;;;2.35;;
49015;SDS011;34830;44.064;12.566;2023-04-01T03:19:35;4.70;;;2.10;;
49015;SDS011;34830;44.064;12.566;2023-04-01T03:24:33;5.30;;;2.55;;
49015;SDS011;34830;44.064;12.566;2023-04-01T03:26:59;7.20;;;2.28;;
49015;SDS011;34830;44.064;12.566;2023-04-01T03:29:25;9.10;;;2.33;;
49015;SDS011;34830;44.064;12.566;2023-04-01T03:31:51;10.50;;;3.38;;
49015;SDS011;34830;44.064;12.566;2023-04-01T03:34:17;8.07;;;2.28;;
49015;SDS011;34830;44.064;12.566;2023-04-01T03:36:43;6.28;;;2.53;;
49015;SDS011;34830;44.064;12.566;2023-04-01T03:39:10;5.63;;;2.42;;
49015;SDS011;34830;44.064;12.566;2023-04-01T03:41:40;6.00;;;2.15;;
49015;SDS011;34830;44.064;12.566;2023-04-01T03:44:06;13.10;;;2.55;;
49015;SDS011;34830;44.064;12.566;2023-04-01T03:46:32;7.28;;;2.65;;
49015;SDS011;34830;44.064;12.566;2023-04-01T03:48:58;7.70;;;2.65;;
49015;SDS011;34830;44.064;12.566;2023-04-01T03:51:24;6.78;;;2.90;;
49015;SDS011;34830;44.064;12.566;2023-04-01T03:53:51;8.45;;;2.88;;
49015;SDS011;34830;44.064;12.566;2023-04-01T03:56:18;12.35;;;3.72;;
49015;SDS011;34830;44.064;12.566;2023-04-01T03:58:44;8.80;;;3.67;;
49015;SDS011;34830;44.064;12.566;2023-04-01T04:01:18;8.80;;;3.13;;
49015;SDS011;34830;44.064;12.566;2023-04-01T04:03:47;8.85;;;3.00;;
49015;SDS011;34830;44.064;12.566;2023-04-01T04:06:16;9.85;;;4.20;;
49015;SDS011;34830;44.064;12.566;2023-04-01T04:08:43;11.20;;;3.85;;
49015;SDS011;34830;44.064;12.566;2023-04-01T04:11:10;12.18;;;5.72;;
49015;SDS011;34830;44.064;12.566;2023-04-01T04:13:39;12.18;;;4.15;;
49015;SDS011;34830;44.064;12.566;2023-04-01T04:16:06;8.05;;;3.90;;
49015;SDS011;34830;44.064;12.566;2023-04-01T04:18:35;8.40;;;4.10;;
49015;SDS011;34830;44.064;12.566;2023-04-01T04:21:01;10.05;;;3.50;;
49015;SDS011;34830;44.064;12.566;2023-04-01T04:23:28;10.07;;;3.60;;
49015;SDS011;34830;44.064;12.566;2023-04-01T04:25:59;11.90;;;3.72;;
49015;SDS011;34830;44.064;12.566;2023-04-01T04:28:28;10.88;;;4.40;;
49015;SDS011;34830;44.064;12.566;2023-04-01T04:30:56;10.88;;;4.38;;
49015;SDS011;34830;44.064;12.566;2023-04-01T04:33:23;11.00;;;4.22;;
49015;SDS011;34830;44.064;12.566;2023-04-01T04:35:49;12.73;;;4.20;;
49015;SDS011;34830;44.064;12.566;2023-04-01T04:38:16;15.48;;;4.28;;
49015;SDS011;34830;44.064;12.566;2023-04-01T04:40:42;13.57;;;4.32;;
49015;SDS011;34830;44.064;12.566;2023-04-01T04:43:13;8.63;;;4.07;;
49015;SDS011;34830;44.064;12.566;2023-04-01T04:45:41;8.68;;;3.78;;
49015;SDS011;34830;44.064;12.566;2023-04-01T04:48:08;10.70;;;4.57;;
49015;SDS011;34830;44.064;12.566;2023-04-01T04:50:36;8.45;;;3.75;;
49015;SDS011;34830;44.064;12.566;2023-04-01T04:53:02;13.27;;;4.55;;
49015;SDS011;34830;44.064;12.566;2023-04-01T04:55:29;9.93;;;4.47;;
49015;SDS011;34830;44.064;12.566;2023-04-01T04:58:15;11.82;;;4.38;;
49015;SDS011;34830;44.064;12.566;2023-04-01T05:00:43;11.82;;;4.75;;
49015;SDS011;34830;44.064;12.566;2023-04-01T05:03:17;12.65;;;4.72;;
49015;SDS011;34830;44.064;12.566;2023-04-01T05:05:50;9.63;;;4.57;;
49015;SDS011;34830;44.064;12.566;2023-04-01T05:08:17;8.68;;;5.00;;
49015;SDS011;34830;44.064;12.566;2023-04-01T05:10:44;12.98;;;5.78;;
49015;SDS011;34830;44.064;12.566;2023-04-01T05:13:11;14.23;;;4.93;;
49015;SDS011;34830;44.064;12.566;2023-04-01T05:15:38;12.95;;;4.93;;
49015;SDS011;34830;44.064;12.566;2023-04-01T05:18:04;12.60;;;4.68;;
49015;SDS011;34830;44.064;12.566;2023-04-01T05:20:30;11.02;;;4.75;;
49015;SDS011;34830;44.064;12.566;2023-04-01T05:22:56;13.00;;;5.10;;
49015;SDS011;34830;44.064;12.566;2023-04-01T05:25:24;17.08;;;6.28;;
49015;SDS011;34830;44.064;12.566;2023-04-01T05:27:50;10.73;;;5.63;;
49015;SDS011;34830;44.064;12.566;2023-04-01T05:30:16;15.20;;;5.93;;
49015;SDS011;34830;44.064;12.566;2023-04-01T05:33:02;15.48;;;5.97;;
49015;SDS011;34830;44.064;12.566;2023-04-01T05:35:28;11.98;;;5.25;;
49015;SDS011;34830;44.064;12.566;2023-04-01T05:37:54;11.77;;;5.25;;
49015;SDS011;34830;44.064;12.566;2023-04-01T05:40:21;13.88;;;5.35;;
49015;SDS011;34830;44.064;12.566;2023-04-01T05:42:47;23.30;;;6.13;;
49015;SDS011;34830;44.064;12.566;2023-04-01T05:45:14;20.00;;;6.47;;
49015;SDS011;34830;44.064;12.566;2023-04-01T05:47:59;17.10;;;6.35;;
49015;SDS011;34830;44.064;12.566;2023-04-01T05:50:28;15.95;;;6.35;;
49015;SDS011;34830;44.064;12.566;2023-04-01T05:52:54;18.65;;;6.68;;
49015;SDS011;34830;44.064;12.566;2023-04-01T05:55:21;14.35;;;6.32;;
49015;SDS011;34830;44.064;12.566;2023-04-01T05:57:49;17.77;;;7.50;;
49015;SDS011;34830;44.064;12.566;2023-04-01T06:00:16;18.25;;;6.40;;
49015;SDS011;34830;44.064;12.566;2023-04-01T06:02:43;18.63;;;7.75;;
49015;SDS011;34830;44.064;12.566;2023-04-01T06:05:22;14.57;;;6.55;;
49015;SDS011;34830;44.064;12.566;2023-04-01T06:07:50;19.83;;;8.15;;
49015;SDS011;34830;44.064;12.566;2023-04-01T06:10:21;19.85;;;7.88;;
49015;SDS011;34830;44.064;12.566;2023-04-01T06:13:04;21.40;;;7.95;;
49015;SDS011;34830;44.064;12.566;2023-04-01T06:15:36;19.17;;;8.10;;
49015;SDS011;34830;44.064;12.566;2023-04-01T06:21:00;18.80;;;7.13;;
49015;SDS011;34830;44.064;12.566;2023-04-01T06:26:55;23.07;;;7.77;;
49015;SDS011;34830;44.064;12.566;2023-04-01T06:32:17;29.90;;;9.95;;
49015;SDS011;34830;44.064;12.566;2023-04-01T06:40:27;20.65;;;11.43;;
49015;SDS011;34830;44.064;12.566;2023-04-01T06:49:16;34.45;;;11.02;;
49015;SDS011;34830;44.064;12.566;2023-04-01T06:52:14;33.47;;;12.80;;
49015;SDS011;34830;44.064;12.566;2023-04-01T06:58:06;27.08;;;12.90;;
49015;SDS011;34830;44.064;12.566;2023-04-01T07:00:39;28.27;;;14.55;;
49015;SDS011;34830;44.064;12.566;2023-04-01T07:06:03;31.48;;;15.30;;
49015;SDS011;34830;44.064;12.566;2023-04-01T07:08:34;28.48;;;13.98;;
49015;SDS011;34830;44.064;12.566;2023-04-01T07:11:06;28.98;;;14.23;;
49015;SDS011;34830;44.064;12.566;2023-04-01T07:16:39;31.15;;;13.45;;
49015;SDS011;34830;44.064;12.566;2023-04-01T07:25:03;26.33;;;11.20;;
49015;SDS011;34830;44.064;12.566;2023-04-01T07:27:34;19.38;;;10.50;;
49015;SDS011;34830;44.064;12.566;2023-04-01T07:30:00;17.08;;;8.95;;
49015;SDS011;34830;44.064;12.566;2023-04-01T07:43:40;17.38;;;7.13;;
49015;SDS011;34830;44.064;12.566;2023-04-01T08:07:49;18.08;;;6.47;;
49015;SDS011;34830;44.064;12.566;2023-04-01T08:10:44;20.55;;;6.20;;
49015;SDS011;34830;44.064;12.566;2023-04-01T08:17:14;14.88;;;5.30;;
49015;SDS011;34830;44.064;12.566;2023-04-01T08:20:04;13.48;;;5.20;;
49015;SDS011;34830;44.064;12.566;2023-04-01T08:22:42;11.43;;;4.45;;
49015;SDS011;34830;44.064;12.566;2023-04-01T08:25:20;21.13;;;5.97;;
49015;SDS011;34830;44.064;12.566;2023-04-01T08:27:51;14.77;;;7.97;;
49015;SDS011;34830;44.064;12.566;2023-04-01T08:30:21;24.08;;;10.10;;
49015;SDS011;34830;44.064;12.566;2023-04-01T08:33:31;21.38;;;11.70;;
49015;SDS011;34830;44.064;12.566;2023-04-01T08:50:19;28.83;;;13.30;;
49015;SDS011;34830;44.064;12.566;2023-04-01T08:58:32;23.65;;;15.65;;
49015;SDS011;34830;44.064;12.566;2023-04-01T09:06:32;30.13;;;16.42;;
49015;SDS011;34830;44.064;12.566;2023-04-01T09:20:17;33.00;;;15.32;;
49015;SDS011;34830;44.064;12.566;2023-04-01T09:23:10;30.77;;;14.15;;
49015;SDS011;34830;44.064;12.566;2023-04-01T09:25:47;23.88;;;14.43;;
49015;SDS011;34830;44.064;12.566;2023-04-01T09:35:00;28.73;;;13.68;;
49015;SDS011;34830;44.064;12.566;2023-04-01T09:48:56;23.52;;;12.32;;
49015;SDS011;34830;44.064;12.566;2023-04-01T09:57:16;18.45;;;10.80;;
49015;SDS011;34830;44.064;12.566;2023-04-01T10:05:45;28.70;;;11.88;;
49015;SDS011;34830;44.064;12.566;2023-04-01T10:08:23;24.35;;;11.00;;
49015;SDS011;34830;44.064;12.566;2023-04-01T10:25:44;16.55;;;9.55;;
49015;SDS011;34830;44.064;12.566;2023-04-01T10:35:08;22.08;;;10.85;;
49015;SDS011;34830;44.064;12.566;2023-04-01T10:44:40;24.58;;;13.55;;
49015;SDS011;34830;44.064;12.566;2023-04-01T11:05:42;21.30;;;13.63;;
49015;SDS011;34830;44.064;12.566;2023-04-01T11:22:56;23.95;;;11.90;;
49015;SDS011;34830;44.064;12.566;2023-04-01T11:25:52;19.42;;;12.70;;
49015;SDS011;34830;44.064;12.566;2023-04-01T11:28:54;21.42;;;11.18;;
49015;SDS011;34830;44.064;12.566;2023-04-01T11:37:15;24.10;;;13.18;;
49015;SDS011;34830;44.064;12.566;2023-04-01T11:47:03;26.10;;;14.93;;
49015;SDS011;34830;44.064;12.566;2023-04-01T11:53:02;21.38;;;14.80;;
49015;SDS011;34830;44.064;12.566;2023-04-01T11:55:41;23.40;;;15.07;;
49015;SDS011;34830;44.064;12.566;2023-04-01T12:04:06;19.10;;;12.18;;
49015;SDS011;34830;44.064;12.566;2023-04-01T12:06:59;20.98;;;11.70;;
49015;SDS011;34830;44.064;12.566;2023-04-01T12:18:42;18.75;;;11.88;;
49015;SDS011;34830;44.064;12.566;2023-04-01T12:21:37;22.95;;;13.13;;
49015;SDS011;34830;44.064;12.566;2023-04-01T12:34:49;25.98;;;15.45;;
49015;SDS011;34830;44.064;12.566;2023-04-01T12:37:29;20.73;;;13.80;;
49015;SDS011;34830;44.064;12.566;2023-04-01T12:55:52;18.65;;;9.57;;
49015;SDS011;34830;44.064;12.566;2023-04-01T12:58:24;13.15;;;8.70;;
49015;SDS011;34830;44.064;12.566;2023-04-01T13:18:06;14.98;;;8.05;;
49015;SDS011;34830;44.064;12.566;2023-04-01T13:20:44;19.85;;;8.40;;
49015;SDS011;34830;44.064;12.566;2023-04-01T13:23:36;13.98;;;6.28;;
49015;SDS011;34830;44.064;12.566;2023-04-01T13:26:23;16.50;;;7.05;;
49015;SDS011;34830;44.064;12.566;2023-04-01T13:37:22;18.40;;;6.60;;
49015;SDS011;34830;44.064;12.566;2023-04-01T13:56:33;17.83;;;9.00;;
49015;SDS011;34830;44.064;12.566;2023-04-01T14:01:42;14.32;;;8.02;;
49015;SDS011;34830;44.064;12.566;2023-04-01T14:04:26;19.10;;;8.18;;
49015;SDS011;34830;44.064;12.566;2023-04-01T14:15:03;22.45;;;9.70;;
49015;SDS011;34830;44.064;12.566;2023-04-01T14:17:37;13.45;;;7.72;;
49015;SDS011;34830;44.064;12.566;2023-04-01T14:28:25;18.05;;;10.02;;
49015;SDS011;34830;44.064;12.566;2023-04-01T14:43:01;18.48;;;8.32;;
49015;SDS011;34830;44.064;12.566;2023-04-01T14:45:50;16.73;;;9.55;;
49015;SDS011;34830;44.064;12.566;2023-04-01T14:48:38;23.45;;;9.90;;
49015;SDS011;34830;44.064;12.566;2023-04-01T14:51:20;19.42;;;8.98;;
49015;SDS011;34830;44.064;12.566;2023-04-01T14:56:41;19.25;;;8.93;;
49015;SDS011;34830;44.064;12.566;2023-04-01T14:59:10;21.52;;;7.97;;
49015;SDS011;34830;44.064;12.566;2023-04-01T15:02:08;17.67;;;8.05;;
49015;SDS011;34830;44.064;12.566;2023-04-01T15:21:41;17.45;;;8.68;;
49015;SDS011;34830;44.064;12.566;2023-04-01T15:32:21;17.02;;;7.18;;
49015;SDS011;34830;44.064;12.566;2023-04-01T15:34:57;14.52;;;7.93;;
49015;SDS011;34830;44.064;12.566;2023-04-01T15:46:41;15.55;;;7.45;;
49015;SDS011;34830;44.064;12.566;2023-04-01T15:49:02;16.67;;;7.13;;
49015;SDS011;34830;44.064;12.566;2023-04-01T15:52:05;15.52;;;6.43;;
49015;SDS011;34830;44.064;12.566;2023-04-01T16:00:05;17.75;;;8.35;;
49015;SDS011;34830;44.064;12.566;2023-04-01T16:13:30;14.05;;;6.95;;
49015;SDS011;34830;44.064;12.566;2023-04-01T16:19:24;15.57;;;7.13;;
49015;SDS011;34830;44.064;12.566;2023-04-01T16:21:33;13.82;;;7.07;;
49015;SDS011;34830;44.064;12.566;2023-04-01T16:24:10;13.75;;;7.25;;
49015;SDS011;34830;44.064;12.566;2023-04-01T16:34:47;16.48;;;6.07;;
49015;SDS011;34830;44.064;12.566;2023-04-01T16:37:33;12.85;;;6.50;;
49015;SDS011;34830;44.064;12.566;2023-04-01T16:40:19;12.23;;;6.25;;
49015;SDS011;34830;44.064;12.566;2023-04-01T16:42:49;13.43;;;5.60;;
49015;SDS011;34830;44.064;12.566;2023-04-01T16:47:58;13.18;;;4.15;;
49015;SDS011;34830;44.064;12.566;2023-04-01T16:50:39;7.55;;;4.05;;
49015;SDS011;34830;44.064;12.566;2023-04-01T16:55:52;14.18;;;5.15;;
49015;SDS011;34830;44.064;12.566;2023-04-01T16:58:26;11.15;;;4.03;;
49015;SDS011;34830;44.064;12.566;2023-04-01T17:01:12;6.85;;;4.07;;
49015;SDS011;34830;44.064;12.566;2023-04-01T17:03:45;12.30;;;4.40;;
49015;SDS011;34830;44.064;12.566;2023-04-01T17:06:17;8.30;;;3.85;;
49015;SDS011;34830;44.064;12.566;2023-04-01T17:19:41;10.32;;;4.35;;
49015;SDS011;34830;44.064;12.566;2023-04-01T17:25:17;11.52;;;4.18;;
49015;SDS011;34830;44.064;12.566;2023-04-01T17:30:41;12.15;;;3.22;;
49015;SDS011;34830;44.064;12.566;2023-04-01T17:33:32;8.48;;;3.58;;
49015;SDS011;34830;44.064;12.566;2023-04-01T17:47:38;5.65;;;1.80;;
49015;SDS011;34830;44.064;12.566;2023-04-01T17:55:31;6.82;;;1.88;;
49015;SDS011;34830;44.064;12.566;2023-04-01T18:08:49;4.13;;;1.70;;
49015;SDS011;34830;44.064;12.566;2023-04-01T18:16:51;5.00;;;2.22;;
49015;SDS011;34830;44.064;12.566;2023-04-01T18:21:48;5.47;;;1.80;;
49015;SDS011;34830;44.064;12.566;2023-04-01T18:24:19;7.63;;;2.70;;
49015;SDS011;34830;44.064;12.566;2023-04-01T18:26:59;7.57;;;1.70;;
49015;SDS011;34830;44.064;12.566;2023-04-01T18:32:37;5.60;;;1.60;;
49015;SDS011;34830;44.064;12.566;2023-04-01T18:38:19;5.20;;;1.55;;
49015;SDS011;34830;44.064;12.566;2023-04-01T18:43:51;3.90;;;1.70;;
49015;SDS011;34830;44.064;12.566;2023-04-01T18:57:26;5.60;;;2.45;;
49015;SDS011;34830;44.064;12.566;2023-04-01T18:59:54;4.38;;;1.70;;
49015;SDS011;34830;44.064;12.566;2023-04-01T19:02:36;7.57;;;2.70;;
49015;SDS011;34830;44.064;12.566;2023-04-01T19:15:55;9.05;;;4.15;;
49015;SDS011;34830;44.064;12.566;2023-04-01T19:21:33;6.20;;;2.78;;
49015;SDS011;34830;44.064;12.566;2023-04-01T19:26:40;8.70;;;3.88;;
49015;SDS011;34830;44.064;12.566;2023-04-01T19:29:21;10.05;;;4.03;;
49015;SDS011;34830;44.064;12.566;2023-04-01T19:34:49;9.93;;;4.28;;
49015;SDS011;34830;44.064;12.566;2023-04-01T19:37:40;5.55;;;3.03;;
49015;SDS011;34830;44.064;12.566;2023-04-01T19:45:49;9.30;;;3.88;;
49015;SDS011;34830;44.064;12.566;2023-04-01T19:51:10;7.05;;;2.53;;
49015;SDS011;34830;44.064;12.566;2023-04-01T19:53:48;6.90;;;2.28;;
49015;SDS011;34830;44.064;12.566;2023-04-01T19:56:22;6.90;;;2.40;;
49015;SDS011;34830;44.064;12.566;2023-04-01T20:01:33;5.75;;;2.28;;
49015;SDS011;34830;44.064;12.566;2023-04-01T20:04:08;5.57;;;2.17;;
49015;SDS011;34830;44.064;12.566;2023-04-01T20:06:47;7.88;;;2.63;;
49015;SDS011;34830;44.064;12.566;2023-04-01T20:12:20;13.65;;;3.08;;
49015;SDS011;34830;44.064;12.566;2023-04-01T20:14:51;7.90;;;2.80;;
49015;SDS011;34830;44.064;12.566;2023-04-01T20:17:23;9.35;;;2.72;;
49015;SDS011;34830;44.064;12.566;2023-04-01T20:19:54;8.50;;;2.80;;
49015;SDS011;34830;44.064;12.566;2023-04-01T20:25:20;8.32;;;3.67;;
49015;SDS011;34830;44.064;12.566;2023-04-01T20:33:24;7.13;;;2.80;;
49015;SDS011;34830;44.064;12.566;2023-04-01T20:41:03;5.97;;;2.30;;
49015;SDS011;34830;44.064;12.566;2023-04-01T20:43:40;10.73;;;2.03;;
49015;SDS011;34830;44.064;12.566;2023-04-01T20:46:23;5.75;;;2.22;;
49015;SDS011;34830;44.064;12.566;2023-04-01T20:51:23;5.70;;;2.65;;
49015;SDS011;34830;44.064;12.566;2023-04-01T20:56:56;5.28;;;2.30;;
49015;SDS011;34830;44.064;12.566;2023-04-01T21:13:49;7.53;;;3.40;;
49015;SDS011;34830;44.064;12.566;2023-04-01T21:16:36;6.80;;;3.60;;
49015;SDS011;34830;44.064;12.566;2023-04-01T21:52:54;11.45;;;4.80;;
49015;SDS011;34830;44.064;12.566;2023-04-01T22:18:19;34.35;;;6.45;;
49015;SDS011;34830;44.064;12.566;2023-04-01T22:26:36;13.00;;;4.82;;
49015;SDS011;34830;44.064;12.566;2023-04-01T22:29:31;9.32;;;4.55;;
49015;SDS011;34830;44.064;12.566;2023-04-01T22:34:57;11.38;;;5.30;;
49015;SDS011;34830;44.064;12.566;2023-04-01T22:51:40;9.38;;;4.13;;
49015;SDS011;34830;44.064;12.566;2023-04-01T22:54:52;12.63;;;2.72;;
49015;SDS011;34830;44.064;12.566;2023-04-01T23:02:59;9.43;;;3.05;;
49015;SDS011;34830;44.064;12.566;2023-04-01T23:05:28;6.60;;;2.42;;
49015;SDS011;34830;44.064;12.566;2023-04-01T23:10:59;6.85;;;2.72;;
49015;SDS011;34830;44.064;12.566;2023-04-01T23:13:50;10.45;;;3.03;;
49015;SDS011;34830;44.064;12.566;2023-04-01T23:16:24;11.25;;;3.13;;
49015;SDS011;34830;44.064;12.566;2023-04-01T23:21:41;10.05;;;2.65;;
49015;SDS011;34830;44.064;12.566;2023-04-01T23:26:42;11.35;;;2.42;;
49015;SDS011;34830;44.064;12.566;2023-04-01T23:29:16;7.63;;;3.00;;
49015;SDS011;34830;44.064;12.566;2023-04-01T23:31:59;10.18;;;2.90;;
49015;SDS011;34830;44.064;12.566;2023-04-01T23:34:30;7.38;;;2.33;;
49015;SDS011;34830;44.064;12.566;2023-04-01T23:36:59;10.45;;;3.25;;
49015;SDS011;34830;44.064;12.566;2023-04-01T23:39:32;10.25;;;3.03;;
49015;SDS011;34830;44.064;12.566;2023-04-01T23:44:51;10.27;;;2.67;;
49015;SDS011;34830;44.064;12.566;2023-04-01T23:47:26;7.03;;;3.45;;
49015;SDS011;34830;44.064;12.566;2023-04-01T23:49:56;7.35;;;3.30;;
49015;SDS011;34830;44.064;12.566;2023-04-01T23:52:26;13.35;;;3.03;;
49015;SDS011;34830;44.064;12.566;2023-04-01T23:54:58;11.70;;;2.88;;
49015;SDS011;34830;44.064;12.566;2023-04-01T23:57:29;9.85;;;2.70;;
